sensor_id;sensor_type;location;lat;lon;timestamp;temperature;humidity
4376;DHT22;2202;50.866;12.750;2024-02-26T00:02:06;2.40;95.60
4376;DHT22;2202;50.866;12.750;2024-02-26T00:04:34;2.40;95.70
4376;DHT22;2202;50.866;12.750;2024-02-26T00:07:01;2.50;95.80
4376;DHT22;2202;50.866;12.750;2024-02-26T00:09:28;2.50;95.90
4376;DHT22;2202;50.866;12.750;2024-02-26T00:11:55;2.60;96.00
4376;DHT22;2202;50.866;12.750;2024-02-26T00:14:23;2.70;96.00
4376;DHT22;2202;50.866;12.750;2024-02-26T00:16:50;2.70;96.10
4376;DHT22;2202;50.866;12.750;2024-02-26T00:19:16;2.80;96.00
4376;DHT22;2202;50.866;12.750;2024-02-26T00:21:45;2.80;95.90
4376;DHT22;2202;50.866;12.750;2024-02-26T00:24:11;2.80;95.80
4376;DHT22;2202;50.866;12.750;2024-02-26T00:26:38;2.80;95.70
4376;DHT22;2202;50.866;12.750;2024-02-26T00:29:05;2.80;95.60
4376;DHT22;2202;50.866;12.750;2024-02-26T00:31:32;2.80;95.60
4376;DHT22;2202;50.866;12.750;2024-02-26T00:33:59;2.80;95.40
4376;DHT22;2202;50.866;12.750;2024-02-26T00:36:26;2.80;95.30
4376;DHT22;2202;50.866;12.750;2024-02-26T00:38:54;2.80;95.30
4376;DHT22;2202;50.866;12.750;2024-02-26T00:41:21;2.80;95.40
4376;DHT22;2202;50.866;12.750;2024-02-26T00:43:48;2.80;95.30
4376;DHT22;2202;50.866;12.750;2024-02-26T00:46:15;2.80;95.20
4376;DHT22;2202;50.866;12.750;2024-02-26T00:48:42;2.80;95.10
4376;DHT22;2202;50.866;12.750;2024-02-26T00:51:09;2.70;95.10
4376;DHT22;2202;50.866;12.750;2024-02-26T00:53:36;2.70;95.20
4376;DHT22;2202;50.866;12.750;2024-02-26T00:56:04;2.70;95.10
4376;DHT22;2202;50.866;12.750;2024-02-26T00:58:32;2.70;95.00
4376;DHT22;2202;50.866;12.750;2024-02-26T01:00:59;2.60;94.90
4376;DHT22;2202;50.866;12.750;2024-02-26T01:03:25;2.60;94.80
4376;DHT22;2202;50.866;12.750;2024-02-26T01:05:52;2.60;94.80
4376;DHT22;2202;50.866;12.750;2024-02-26T01:08:19;2.50;94.80
4376;DHT22;2202;50.866;12.750;2024-02-26T01:10:46;2.50;94.80
4376;DHT22;2202;50.866;12.750;2024-02-26T01:13:14;2.50;94.90
4376;DHT22;2202;50.866;12.750;2024-02-26T01:15:41;2.50;94.80
4376;DHT22;2202;50.866;12.750;2024-02-26T01:18:09;2.50;94.90
4376;DHT22;2202;50.866;12.750;2024-02-26T01:20:36;2.50;94.90
4376;DHT22;2202;50.866;12.750;2024-02-26T01:23:03;2.40;95.00
4376;DHT22;2202;50.866;12.750;2024-02-26T01:25:30;2.40;95.10
4376;DHT22;2202;50.866;12.750;2024-02-26T01:27:57;2.40;94.90
4376;DHT22;2202;50.866;12.750;2024-02-26T01:30:25;2.40;94.90
4376;DHT22;2202;50.866;12.750;2024-02-26T01:32:52;2.40;95.10
4376;DHT22;2202;50.866;12.750;2024-02-26T01:35:19;2.40;95.20
4376;DHT22;2202;50.866;12.750;2024-02-26T01:37:46;2.40;95.50
4376;DHT22;2202;50.866;12.750;2024-02-26T01:40:13;2.40;95.60
4376;DHT22;2202;50.866;12.750;2024-02-26T01:42:43;2.40;95.70
4376;DHT22;2202;50.866;12.750;2024-02-26T01:45:13;2.40;95.80
4376;DHT22;2202;50.866;12.750;2024-02-26T01:47:49;2.40;95.80
4376;DHT22;2202;50.866;12.750;2024-02-26T01:50:28;2.30;95.80
4376;DHT22;2202;50.866;12.750;2024-02-26T01:52:55;2.30;95.80
4376;DHT22;2202;50.866;12.750;2024-02-26T01:55:32;2.40;95.70
4376;DHT22;2202;50.866;12.750;2024-02-26T01:58:00;2.30;95.60
4376;DHT22;2202;50.866;12.750;2024-02-26T02:00:27;2.30;95.60
4376;DHT22;2202;50.866;12.750;2024-02-26T02:02:59;2.20;95.70
4376;DHT22;2202;50.866;12.750;2024-02-26T02:05:35;2.20;95.80
4376;DHT22;2202;50.866;12.750;2024-02-26T02:08:07;2.10;95.90
4376;DHT22;2202;50.866;12.750;2024-02-26T02:10:34;2.10;96.00
4376;DHT22;2202;50.866;12.750;2024-02-26T02:13:01;2.10;96.00
4376;DHT22;2202;50.866;12.750;2024-02-26T02:15:28;2.10;96.10
4376;DHT22;2202;50.866;12.750;2024-02-26T02:17:56;2.10;96.20
4376;DHT22;2202;50.866;12.750;2024-02-26T02:20:31;2.10;96.20
4376;DHT22;2202;50.866;12.750;2024-02-26T02:22:58;2.10;96.30
4376;DHT22;2202;50.866;12.750;2024-02-26T02:25:25;2.10;96.20
4376;DHT22;2202;50.866;12.750;2024-02-26T02:27:52;2.00;96.30
4376;DHT22;2202;50.866;12.750;2024-02-26T02:30:21;2.00;96.30
4376;DHT22;2202;50.866;12.750;2024-02-26T02:32:51;2.00;96.20
4376;DHT22;2202;50.866;12.750;2024-02-26T02:35:18;2.00;96.20
4376;DHT22;2202;50.866;12.750;2024-02-26T02:37:46;1.90;96.20
4376;DHT22;2202;50.866;12.750;2024-02-26T02:40:13;1.90;96.20
4376;DHT22;2202;50.866;12.750;2024-02-26T02:42:40;1.90;96.10
4376;DHT22;2202;50.866;12.750;2024-02-26T02:45:07;1.90;96.00
4376;DHT22;2202;50.866;12.750;2024-02-26T02:47:36;1.90;95.80
4376;DHT22;2202;50.866;12.750;2024-02-26T02:50:03;1.90;95.80
4376;DHT22;2202;50.866;12.750;2024-02-26T02:52:30;1.80;95.80
4376;DHT22;2202;50.866;12.750;2024-02-26T02:54:58;1.80;95.90
4376;DHT22;2202;50.866;12.750;2024-02-26T02:57:25;1.80;95.80
4376;DHT22;2202;50.866;12.750;2024-02-26T02:59:52;1.80;95.40
4376;DHT22;2202;50.866;12.750;2024-02-26T03:02:19;1.80;95.20
4376;DHT22;2202;50.866;12.750;2024-02-26T03:04:46;1.70;95.00
4376;DHT22;2202;50.866;12.750;2024-02-26T03:07:13;1.70;94.80
4376;DHT22;2202;50.866;12.750;2024-02-26T03:09:39;1.70;94.60
4376;DHT22;2202;50.866;12.750;2024-02-26T03:12:08;1.60;94.70
4376;DHT22;2202;50.866;12.750;2024-02-26T03:14:35;1.60;94.70
4376;DHT22;2202;50.866;12.750;2024-02-26T03:17:02;1.60;94.80
4376;DHT22;2202;50.866;12.750;2024-02-26T03:19:29;1.60;94.70
4376;DHT22;2202;50.866;12.750;2024-02-26T03:21:55;1.60;94.60
4376;DHT22;2202;50.866;12.750;2024-02-26T03:24:22;1.50;94.60
4376;DHT22;2202;50.866;12.750;2024-02-26T03:26:49;1.50;94.40
4376;DHT22;2202;50.866;12.750;2024-02-26T03:29:18;1.50;94.40
4376;DHT22;2202;50.866;12.750;2024-02-26T03:31:45;1.50;94.40
4376;DHT22;2202;50.866;12.750;2024-02-26T03:34:12;1.40;94.40
4376;DHT22;2202;50.866;12.750;2024-02-26T03:36:40;1.40;94.30
4376;DHT22;2202;50.866;12.750;2024-02-26T03:39:07;1.30;94.30
4376;DHT22;2202;50.866;12.750;2024-02-26T03:41:34;1.30;94.30
4376;DHT22;2202;50.866;12.750;2024-02-26T03:44:01;1.30;94.20
4376;DHT22;2202;50.866;12.750;2024-02-26T03:46:29;1.20;94.10
4376;DHT22;2202;50.866;12.750;2024-02-26T03:48:56;1.20;94.20
4376;DHT22;2202;50.866;12.750;2024-02-26T03:51:23;1.10;94.10
4376;DHT22;2202;50.866;12.750;2024-02-26T03:53:50;1.00;94.00
4376;DHT22;2202;50.866;12.750;2024-02-26T03:56:17;1.00;93.90
4376;DHT22;2202;50.866;12.750;2024-02-26T03:58:44;0.90;93.80
4376;DHT22;2202;50.866;12.750;2024-02-26T04:01:10;0.80;93.60
4376;DHT22;2202;50.866;12.750;2024-02-26T04:03:39;0.80;93.70
4376;DHT22;2202;50.866;12.750;2024-02-26T04:06:08;0.80;93.60
4376;DHT22;2202;50.866;12.750;2024-02-26T04:08:35;0.70;93.50
4376;DHT22;2202;50.866;12.750;2024-02-26T04:11:02;0.70;93.50
4376;DHT22;2202;50.866;12.750;2024-02-26T04:13:32;0.70;93.50
4376;DHT22;2202;50.866;12.750;2024-02-26T04:15:59;0.60;93.50
4376;DHT22;2202;50.866;12.750;2024-02-26T04:18:27;0.60;93.50
4376;DHT22;2202;50.866;12.750;2024-02-26T04:20:55;0.60;93.60
4376;DHT22;2202;50.866;12.750;2024-02-26T04:23:22;0.60;93.70
4376;DHT22;2202;50.866;12.750;2024-02-26T04:25:49;0.60;93.80
4376;DHT22;2202;50.866;12.750;2024-02-26T04:28:16;0.60;93.80
4376;DHT22;2202;50.866;12.750;2024-02-26T04:30:43;0.60;93.90
4376;DHT22;2202;50.866;12.750;2024-02-26T04:33:09;0.50;93.90
4376;DHT22;2202;50.866;12.750;2024-02-26T04:35:36;0.60;94.00
4376;DHT22;2202;50.866;12.750;2024-02-26T04:38:05;0.50;93.90
4376;DHT22;2202;50.866;12.750;2024-02-26T04:40:31;0.50;93.90
4376;DHT22;2202;50.866;12.750;2024-02-26T04:42:58;0.50;93.90
4376;DHT22;2202;50.866;12.750;2024-02-26T04:45:25;0.50;93.90
4376;DHT22;2202;50.866;12.750;2024-02-26T04:47:52;0.50;93.90
4376;DHT22;2202;50.866;12.750;2024-02-26T04:50:19;0.50;93.90
4376;DHT22;2202;50.866;12.750;2024-02-26T04:52:45;0.50;93.90
4376;DHT22;2202;50.866;12.750;2024-02-26T04:55:14;0.50;93.90
4376;DHT22;2202;50.866;12.750;2024-02-26T04:57:40;0.40;93.90
4376;DHT22;2202;50.866;12.750;2024-02-26T05:00:09;0.40;93.90
4376;DHT22;2202;50.866;12.750;2024-02-26T05:02:36;0.30;94.00
4376;DHT22;2202;50.866;12.750;2024-02-26T05:05:04;0.30;94.00
4376;DHT22;2202;50.866;12.750;2024-02-26T05:07:31;0.30;93.90
4376;DHT22;2202;50.866;12.750;2024-02-26T05:09:58;0.20;93.90
4376;DHT22;2202;50.866;12.750;2024-02-26T05:12:26;0.20;93.90
4376;DHT22;2202;50.866;12.750;2024-02-26T05:14:53;0.10;93.90
4376;DHT22;2202;50.866;12.750;2024-02-26T05:17:20;0.10;94.00
4376;DHT22;2202;50.866;12.750;2024-02-26T05:19:47;0.10;94.00
4376;DHT22;2202;50.866;12.750;2024-02-26T05:22:13;0.00;94.00
4376;DHT22;2202;50.866;12.750;2024-02-26T05:24:42;0.00;93.90
4376;DHT22;2202;50.866;12.750;2024-02-26T05:27:09;0.00;93.90
4376;DHT22;2202;50.866;12.750;2024-02-26T05:29:37;0.00;93.90
4376;DHT22;2202;50.866;12.750;2024-02-26T05:32:05;-0.10;93.80
4376;DHT22;2202;50.866;12.750;2024-02-26T05:34:32;-0.10;93.80
4376;DHT22;2202;50.866;12.750;2024-02-26T05:36:59;-0.10;93.80
4376;DHT22;2202;50.866;12.750;2024-02-26T05:39:26;-0.20;93.90
4376;DHT22;2202;50.866;12.750;2024-02-26T05:41:53;-0.20;93.90
4376;DHT22;2202;50.866;12.750;2024-02-26T05:44:22;-0.20;93.90
4376;DHT22;2202;50.866;12.750;2024-02-26T05:46:50;-0.20;93.90
4376;DHT22;2202;50.866;12.750;2024-02-26T05:49:17;-0.30;93.90
4376;DHT22;2202;50.866;12.750;2024-02-26T05:51:44;-0.30;93.90
4376;DHT22;2202;50.866;12.750;2024-02-26T05:54:11;-0.30;94.10
4376;DHT22;2202;50.866;12.750;2024-02-26T05:56:38;-0.30;94.20
4376;DHT22;2202;50.866;12.750;2024-02-26T05:59:05;-0.30;94.30
4376;DHT22;2202;50.866;12.750;2024-02-26T06:01:32;-0.30;94.80
4376;DHT22;2202;50.866;12.750;2024-02-26T06:04:00;-0.20;95.30
4376;DHT22;2202;50.866;12.750;2024-02-26T06:06:27;-0.10;95.80
4376;DHT22;2202;50.866;12.750;2024-02-26T06:08:53;0.10;96.30
4376;DHT22;2202;50.866;12.750;2024-02-26T06:11:20;0.20;96.40
4376;DHT22;2202;50.866;12.750;2024-02-26T06:13:48;0.20;96.60
4376;DHT22;2202;50.866;12.750;2024-02-26T06:16:15;0.30;96.90
4376;DHT22;2202;50.866;12.750;2024-02-26T06:18:42;0.40;97.10
4376;DHT22;2202;50.866;12.750;2024-02-26T06:21:11;0.50;97.20
4376;DHT22;2202;50.866;12.750;2024-02-26T06:23:38;0.50;97.30
4376;DHT22;2202;50.866;12.750;2024-02-26T06:26:05;0.60;97.30
4376;DHT22;2202;50.866;12.750;2024-02-26T06:28:31;0.70;97.50
4376;DHT22;2202;50.866;12.750;2024-02-26T06:31:01;0.80;97.60
4376;DHT22;2202;50.866;12.750;2024-02-26T06:33:28;0.90;97.70
4376;DHT22;2202;50.866;12.750;2024-02-26T06:35:55;1.00;97.90
4376;DHT22;2202;50.866;12.750;2024-02-26T06:38:23;1.00;98.00
4376;DHT22;2202;50.866;12.750;2024-02-26T06:40:50;1.10;98.00
4376;DHT22;2202;50.866;12.750;2024-02-26T06:43:17;1.20;98.00
4376;DHT22;2202;50.866;12.750;2024-02-26T06:45:44;1.40;98.00
4376;DHT22;2202;50.866;12.750;2024-02-26T06:48:11;1.50;98.10
4376;DHT22;2202;50.866;12.750;2024-02-26T06:50:38;1.60;98.00
4376;DHT22;2202;50.866;12.750;2024-02-26T06:53:05;1.70;98.10
4376;DHT22;2202;50.866;12.750;2024-02-26T06:55:34;1.80;98.00
4376;DHT22;2202;50.866;12.750;2024-02-26T06:58:03;1.90;97.90
4376;DHT22;2202;50.866;12.750;2024-02-26T07:00:30;2.10;97.90
4376;DHT22;2202;50.866;12.750;2024-02-26T07:02:57;2.30;97.80
4376;DHT22;2202;50.866;12.750;2024-02-26T07:05:23;2.40;97.80
4376;DHT22;2202;50.866;12.750;2024-02-26T07:07:50;2.60;97.70
4376;DHT22;2202;50.866;12.750;2024-02-26T07:10:18;2.80;97.20
4376;DHT22;2202;50.866;12.750;2024-02-26T07:12:47;2.90;96.80
4376;DHT22;2202;50.866;12.750;2024-02-26T07:15:14;3.00;96.20
4376;DHT22;2202;50.866;12.750;2024-02-26T07:17:40;3.20;96.00
4376;DHT22;2202;50.866;12.750;2024-02-26T07:20:12;3.40;96.00
4376;DHT22;2202;50.866;12.750;2024-02-26T07:22:39;3.70;95.90
4376;DHT22;2202;50.866;12.750;2024-02-26T07:25:08;4.10;95.80
4376;DHT22;2202;50.866;12.750;2024-02-26T07:27:38;4.60;95.10
4376;DHT22;2202;50.866;12.750;2024-02-26T07:30:09;5.30;93.70
4376;DHT22;2202;50.866;12.750;2024-02-26T07:32:36;5.90;91.00
4376;DHT22;2202;50.866;12.750;2024-02-26T07:35:04;6.60;87.20
4376;DHT22;2202;50.866;12.750;2024-02-26T07:37:31;7.10;83.20
4376;DHT22;2202;50.866;12.750;2024-02-26T07:39:58;7.70;80.40
4376;DHT22;2202;50.866;12.750;2024-02-26T07:42:25;8.20;75.20
4376;DHT22;2202;50.866;12.750;2024-02-26T07:44:52;8.50;73.20
4376;DHT22;2202;50.866;12.750;2024-02-26T07:47:20;8.80;71.60
4376;DHT22;2202;50.866;12.750;2024-02-26T07:49:47;8.80;71.40
4376;DHT22;2202;50.866;12.750;2024-02-26T07:52:14;9.20;67.60
4376;DHT22;2202;50.866;12.750;2024-02-26T07:54:41;9.20;67.80
4376;DHT22;2202;50.866;12.750;2024-02-26T07:57:08;9.10;68.60
4376;DHT22;2202;50.866;12.750;2024-02-26T07:59:35;8.90;68.80
4376;DHT22;2202;50.866;12.750;2024-02-26T08:02:02;9.10;69.00
4376;DHT22;2202;50.866;12.750;2024-02-26T08:04:30;9.30;66.60
4376;DHT22;2202;50.866;12.750;2024-02-26T08:06:57;9.30;65.60
4376;DHT22;2202;50.866;12.750;2024-02-26T08:09:24;9.00;66.80
4376;DHT22;2202;50.866;12.750;2024-02-26T08:11:51;8.90;68.60
4376;DHT22;2202;50.866;12.750;2024-02-26T08:14:18;9.00;68.60
4376;DHT22;2202;50.866;12.750;2024-02-26T08:16:45;9.00;67.20
4376;DHT22;2202;50.866;12.750;2024-02-26T08:19:12;8.90;68.00
4376;DHT22;2202;50.866;12.750;2024-02-26T08:21:42;8.70;70.00
4376;DHT22;2202;50.866;12.750;2024-02-26T08:24:08;8.80;69.80
4376;DHT22;2202;50.866;12.750;2024-02-26T08:26:35;8.80;69.60
4376;DHT22;2202;50.866;12.750;2024-02-26T08:29:02;8.90;69.40
4376;DHT22;2202;50.866;12.750;2024-02-26T08:31:29;8.90;68.80
4376;DHT22;2202;50.866;12.750;2024-02-26T08:33:56;9.00;68.40
4376;DHT22;2202;50.866;12.750;2024-02-26T08:36:24;9.10;70.20
4376;DHT22;2202;50.866;12.750;2024-02-26T08:38:53;9.20;69.20
4376;DHT22;2202;50.866;12.750;2024-02-26T08:41:19;9.20;68.20
4376;DHT22;2202;50.866;12.750;2024-02-26T08:43:46;9.30;68.40
4376;DHT22;2202;50.866;12.750;2024-02-26T08:46:13;9.20;68.20
4376;DHT22;2202;50.866;12.750;2024-02-26T08:48:40;9.20;69.80
4376;DHT22;2202;50.866;12.750;2024-02-26T08:51:08;9.20;68.40
4376;DHT22;2202;50.866;12.750;2024-02-26T08:53:35;9.00;68.20
4376;DHT22;2202;50.866;12.750;2024-02-26T08:56:05;8.90;70.00
4376;DHT22;2202;50.866;12.750;2024-02-26T08:58:32;8.80;70.20
4376;DHT22;2202;50.866;12.750;2024-02-26T09:00:59;8.80;71.40
4376;DHT22;2202;50.866;12.750;2024-02-26T09:03:26;8.80;70.80
4376;DHT22;2202;50.866;12.750;2024-02-26T09:05:53;8.80;71.40
4376;DHT22;2202;50.866;12.750;2024-02-26T09:08:20;9.00;71.40
4376;DHT22;2202;50.866;12.750;2024-02-26T09:10:47;9.20;70.60
4376;DHT22;2202;50.866;12.750;2024-02-26T09:13:16;9.20;71.20
4376;DHT22;2202;50.866;12.750;2024-02-26T09:15:44;9.40;71.40
4376;DHT22;2202;50.866;12.750;2024-02-26T09:18:11;9.40;69.60
4376;DHT22;2202;50.866;12.750;2024-02-26T09:20:38;9.50;69.40
4376;DHT22;2202;50.866;12.750;2024-02-26T09:23:05;9.40;68.80
4376;DHT22;2202;50.866;12.750;2024-02-26T09:25:32;9.50;69.60
4376;DHT22;2202;50.866;12.750;2024-02-26T09:28:00;9.40;67.40
4376;DHT22;2202;50.866;12.750;2024-02-26T09:30:28;9.40;68.60
4376;DHT22;2202;50.866;12.750;2024-02-26T09:32:55;9.40;68.80
4376;DHT22;2202;50.866;12.750;2024-02-26T09:35:22;9.20;68.60
4376;DHT22;2202;50.866;12.750;2024-02-26T09:37:48;9.10;71.40
4376;DHT22;2202;50.866;12.750;2024-02-26T09:40:16;9.00;70.60
4376;DHT22;2202;50.866;12.750;2024-02-26T09:42:44;9.00;72.20
4376;DHT22;2202;50.866;12.750;2024-02-26T09:45:17;9.20;71.20
4376;DHT22;2202;50.866;12.750;2024-02-26T09:47:48;9.20;71.00
4376;DHT22;2202;50.866;12.750;2024-02-26T09:50:16;9.20;70.40
4376;DHT22;2202;50.866;12.750;2024-02-26T09:52:48;9.20;71.20
4376;DHT22;2202;50.866;12.750;2024-02-26T09:55:16;9.20;71.60
4376;DHT22;2202;50.866;12.750;2024-02-26T09:57:45;9.30;71.20
4376;DHT22;2202;50.866;12.750;2024-02-26T10:00:15;9.40;71.80
4376;DHT22;2202;50.866;12.750;2024-02-26T10:02:46;9.60;70.80
4376;DHT22;2202;50.866;12.750;2024-02-26T10:05:17;9.80;70.60
4376;DHT22;2202;50.866;12.750;2024-02-26T10:07:45;10.00;68.00
4376;DHT22;2202;50.866;12.750;2024-02-26T10:10:12;10.10;68.20
4376;DHT22;2202;50.866;12.750;2024-02-26T10:12:40;10.20;68.20
4376;DHT22;2202;50.866;12.750;2024-02-26T10:15:08;10.40;67.80
4376;DHT22;2202;50.866;12.750;2024-02-26T10:17:35;10.50;66.20
4376;DHT22;2202;50.866;12.750;2024-02-26T10:20:15;10.40;66.00
4376;DHT22;2202;50.866;12.750;2024-02-26T10:22:43;10.40;66.80
4376;DHT22;2202;50.866;12.750;2024-02-26T10:25:10;10.60;66.00
4376;DHT22;2202;50.866;12.750;2024-02-26T10:27:37;10.60;64.20
4376;DHT22;2202;50.866;12.750;2024-02-26T10:30:06;10.50;66.20
4376;DHT22;2202;50.866;12.750;2024-02-26T10:32:42;10.70;66.80
4376;DHT22;2202;50.866;12.750;2024-02-26T10:35:09;10.90;66.00
4376;DHT22;2202;50.866;12.750;2024-02-26T10:37:38;10.90;64.20
4376;DHT22;2202;50.866;12.750;2024-02-26T10:40:07;10.90;65.60
4376;DHT22;2202;50.866;12.750;2024-02-26T10:42:36;11.00;65.40
4376;DHT22;2202;50.866;12.750;2024-02-26T10:45:04;11.10;64.40
4376;DHT22;2202;50.866;12.750;2024-02-26T10:47:32;11.10;61.60
4376;DHT22;2202;50.866;12.750;2024-02-26T10:49:59;11.20;62.20
4376;DHT22;2202;50.866;12.750;2024-02-26T10:52:31;11.30;61.80
4376;DHT22;2202;50.866;12.750;2024-02-26T10:55:01;11.20;61.40
4376;DHT22;2202;50.866;12.750;2024-02-26T10:59:58;11.10;59.00
4376;DHT22;2202;50.866;12.750;2024-02-26T11:02:26;11.20;61.00
4376;DHT22;2202;50.866;12.750;2024-02-26T11:04:53;11.30;63.00
4376;DHT22;2202;50.866;12.750;2024-02-26T11:07:21;11.30;63.60
4376;DHT22;2202;50.866;12.750;2024-02-26T11:09:49;11.30;62.60
4376;DHT22;2202;50.866;12.750;2024-02-26T11:12:20;11.30;63.00
4376;DHT22;2202;50.866;12.750;2024-02-26T11:14:49;11.40;63.40
4376;DHT22;2202;50.866;12.750;2024-02-26T11:17:21;11.50;62.60
4376;DHT22;2202;50.866;12.750;2024-02-26T11:19:50;11.60;62.20
4376;DHT22;2202;50.866;12.750;2024-02-26T11:22:19;11.80;60.80
4376;DHT22;2202;50.866;12.750;2024-02-26T11:24:47;12.00;59.90
4376;DHT22;2202;50.866;12.750;2024-02-26T11:27:18;12.10;58.70
4376;DHT22;2202;50.866;12.750;2024-02-26T11:29:49;12.10;58.20
4376;DHT22;2202;50.866;12.750;2024-02-26T11:32:17;12.20;57.10
4376;DHT22;2202;50.866;12.750;2024-02-26T11:34:45;12.00;58.30
4376;DHT22;2202;50.866;12.750;2024-02-26T11:37:13;11.90;60.40
4376;DHT22;2202;50.866;12.750;2024-02-26T11:39:40;11.90;60.40
4376;DHT22;2202;50.866;12.750;2024-02-26T11:42:08;11.90;59.00
4376;DHT22;2202;50.866;12.750;2024-02-26T11:44:37;11.90;59.90
4376;DHT22;2202;50.866;12.750;2024-02-26T11:47:10;12.00;59.40
4376;DHT22;2202;50.866;12.750;2024-02-26T11:49:37;12.10;59.80
4376;DHT22;2202;50.866;12.750;2024-02-26T11:52:06;12.20;59.00
4376;DHT22;2202;50.866;12.750;2024-02-26T11:54:38;12.10;60.20
4376;DHT22;2202;50.866;12.750;2024-02-26T11:57:23;12.00;60.80
4376;DHT22;2202;50.866;12.750;2024-02-26T11:59:51;12.00;60.40
4376;DHT22;2202;50.866;12.750;2024-02-26T12:02:45;12.00;59.90
4376;DHT22;2202;50.866;12.750;2024-02-26T12:05:14;12.00;60.40
4376;DHT22;2202;50.866;12.750;2024-02-26T12:07:44;12.00;60.80
4376;DHT22;2202;50.866;12.750;2024-02-26T12:10:24;12.00;60.40
4376;DHT22;2202;50.866;12.750;2024-02-26T12:12:58;12.10;60.10
4376;DHT22;2202;50.866;12.750;2024-02-26T12:15:31;11.90;58.70
4376;DHT22;2202;50.866;12.750;2024-02-26T12:18:01;11.80;59.80
4376;DHT22;2202;50.866;12.750;2024-02-26T12:20:28;11.70;59.20
4376;DHT22;2202;50.866;12.750;2024-02-26T12:22:56;11.60;59.20
4376;DHT22;2202;50.866;12.750;2024-02-26T12:25:25;11.70;59.40
4376;DHT22;2202;50.866;12.750;2024-02-26T12:27:53;11.70;60.20
4376;DHT22;2202;50.866;12.750;2024-02-26T12:30:20;11.80;60.10
4376;DHT22;2202;50.866;12.750;2024-02-26T12:32:49;11.90;59.60
4376;DHT22;2202;50.866;12.750;2024-02-26T12:35:17;12.00;58.30
4376;DHT22;2202;50.866;12.750;2024-02-26T12:37:44;12.00;56.90
4376;DHT22;2202;50.866;12.750;2024-02-26T12:40:12;12.00;57.10
4376;DHT22;2202;50.866;12.750;2024-02-26T12:42:39;11.90;58.20
4376;DHT22;2202;50.866;12.750;2024-02-26T12:45:08;12.00;57.30
4376;DHT22;2202;50.866;12.750;2024-02-26T12:47:36;12.00;57.10
4376;DHT22;2202;50.866;12.750;2024-02-26T12:50:06;11.90;57.40
4376;DHT22;2202;50.866;12.750;2024-02-26T12:52:34;11.90;57.60
4376;DHT22;2202;50.866;12.750;2024-02-26T12:55:02;11.90;57.40
4376;DHT22;2202;50.866;12.750;2024-02-26T12:57:30;12.00;56.90
4376;DHT22;2202;50.866;12.750;2024-02-26T12:59:58;12.00;56.40
4376;DHT22;2202;50.866;12.750;2024-02-26T13:02:26;12.00;54.80
4376;DHT22;2202;50.866;12.750;2024-02-26T13:04:54;11.90;56.00
4376;DHT22;2202;50.866;12.750;2024-02-26T13:07:23;12.00;55.90
4376;DHT22;2202;50.866;12.750;2024-02-26T13:09:51;12.10;55.30
4376;DHT22;2202;50.866;12.750;2024-02-26T13:12:18;12.10;56.90
4376;DHT22;2202;50.866;12.750;2024-02-26T13:14:45;12.20;54.40
4376;DHT22;2202;50.866;12.750;2024-02-26T13:17:12;12.30;53.90
4376;DHT22;2202;50.866;12.750;2024-02-26T13:19:49;12.30;55.50
4376;DHT22;2202;50.866;12.750;2024-02-26T13:22:16;12.30;55.50
4376;DHT22;2202;50.866;12.750;2024-02-26T13:24:44;12.30;55.10
4376;DHT22;2202;50.866;12.750;2024-02-26T13:27:21;12.30;53.70
4376;DHT22;2202;50.866;12.750;2024-02-26T13:29:48;12.30;54.60
4376;DHT22;2202;50.866;12.750;2024-02-26T13:32:15;12.40;54.30
4376;DHT22;2202;50.866;12.750;2024-02-26T13:34:42;12.30;55.50
4376;DHT22;2202;50.866;12.750;2024-02-26T13:37:09;12.40;56.70
4376;DHT22;2202;50.866;12.750;2024-02-26T13:39:35;12.60;55.30
4376;DHT22;2202;50.866;12.750;2024-02-26T13:42:08;12.60;52.70
4376;DHT22;2202;50.866;12.750;2024-02-26T13:44:37;12.60;52.80
4376;DHT22;2202;50.866;12.750;2024-02-26T13:47:08;12.70;53.40
4376;DHT22;2202;50.866;12.750;2024-02-26T13:49:35;12.70;51.90
4376;DHT22;2202;50.866;12.750;2024-02-26T13:52:02;12.80;52.50
4376;DHT22;2202;50.866;12.750;2024-02-26T13:54:29;12.80;52.30
4376;DHT22;2202;50.866;12.750;2024-02-26T13:56:56;12.90;52.80
4376;DHT22;2202;50.866;12.750;2024-02-26T13:59:24;13.00;51.40
4376;DHT22;2202;50.866;12.750;2024-02-26T14:01:51;13.10;52.10
4376;DHT22;2202;50.866;12.750;2024-02-26T14:04:20;13.20;52.30
4376;DHT22;2202;50.866;12.750;2024-02-26T14:06:47;13.00;52.10
4376;DHT22;2202;50.866;12.750;2024-02-26T14:09:14;13.00;53.50
4376;DHT22;2202;50.866;12.750;2024-02-26T14:11:44;13.00;52.80
4376;DHT22;2202;50.866;12.750;2024-02-26T14:14:11;13.10;52.80
4376;DHT22;2202;50.866;12.750;2024-02-26T14:16:40;13.10;53.40
4376;DHT22;2202;50.866;12.750;2024-02-26T14:19:06;12.90;53.50
4376;DHT22;2202;50.866;12.750;2024-02-26T14:21:33;12.90;53.90
4376;DHT22;2202;50.866;12.750;2024-02-26T14:24:01;12.80;53.00
4376;DHT22;2202;50.866;12.750;2024-02-26T14:26:29;12.70;55.30
4376;DHT22;2202;50.866;12.750;2024-02-26T14:28:56;12.50;55.30
4376;DHT22;2202;50.866;12.750;2024-02-26T14:31:23;12.40;55.90
4376;DHT22;2202;50.866;12.750;2024-02-26T14:33:52;12.30;55.30
4376;DHT22;2202;50.866;12.750;2024-02-26T14:36:19;12.30;56.60
4376;DHT22;2202;50.866;12.750;2024-02-26T14:38:46;12.50;55.90
4376;DHT22;2202;50.866;12.750;2024-02-26T14:41:13;12.60;56.00
4376;DHT22;2202;50.866;12.750;2024-02-26T14:43:40;12.60;56.00
4376;DHT22;2202;50.866;12.750;2024-02-26T14:46:07;12.70;55.90
4376;DHT22;2202;50.866;12.750;2024-02-26T14:48:34;12.80;59.00
4376;DHT22;2202;50.866;12.750;2024-02-26T14:51:03;12.80;61.40
4376;DHT22;2202;50.866;12.750;2024-02-26T14:53:31;12.70;57.30
4376;DHT22;2202;50.866;12.750;2024-02-26T14:55:58;12.60;57.30
4376;DHT22;2202;50.866;12.750;2024-02-26T14:58:26;12.40;60.10
4376;DHT22;2202;50.866;12.750;2024-02-26T15:00:53;12.30;63.40
4376;DHT22;2202;50.866;12.750;2024-02-26T15:03:19;12.10;65.40
4376;DHT22;2202;50.866;12.750;2024-02-26T15:05:46;12.10;66.40
4376;DHT22;2202;50.866;12.750;2024-02-26T15:08:14;12.10;67.20
4376;DHT22;2202;50.866;12.750;2024-02-26T15:10:42;12.20;66.80
4376;DHT22;2202;50.866;12.750;2024-02-26T15:13:13;12.20;63.20
4376;DHT22;2202;50.866;12.750;2024-02-26T15:15:40;12.30;60.20
4376;DHT22;2202;50.866;12.750;2024-02-26T15:18:07;12.30;58.30
4376;DHT22;2202;50.866;12.750;2024-02-26T15:20:37;12.20;58.00
4376;DHT22;2202;50.866;12.750;2024-02-26T15:23:04;12.10;58.50
4376;DHT22;2202;50.866;12.750;2024-02-26T15:25:33;12.00;58.20
4376;DHT22;2202;50.866;12.750;2024-02-26T15:28:00;11.90;59.40
4376;DHT22;2202;50.866;12.750;2024-02-26T15:30:27;11.80;59.60
4376;DHT22;2202;50.866;12.750;2024-02-26T15:32:55;11.80;60.20
4376;DHT22;2202;50.866;12.750;2024-02-26T15:35:22;11.60;60.60
4376;DHT22;2202;50.866;12.750;2024-02-26T15:37:49;11.60;62.60
4376;DHT22;2202;50.866;12.750;2024-02-26T15:40:15;11.60;63.00
4376;DHT22;2202;50.866;12.750;2024-02-26T15:42:45;11.50;63.80
4376;DHT22;2202;50.866;12.750;2024-02-26T15:45:12;11.30;64.60
4376;DHT22;2202;50.866;12.750;2024-02-26T15:47:40;11.20;65.00
4376;DHT22;2202;50.866;12.750;2024-02-26T15:50:08;11.00;65.40
4376;DHT22;2202;50.866;12.750;2024-02-26T15:52:36;10.70;66.80
4376;DHT22;2202;50.866;12.750;2024-02-26T15:55:03;10.70;67.60
4376;DHT22;2202;50.866;12.750;2024-02-26T15:57:30;10.60;67.80
4376;DHT22;2202;50.866;12.750;2024-02-26T16:00:00;10.60;67.60
4376;DHT22;2202;50.866;12.750;2024-02-26T16:02:30;10.50;67.40